METAR Data
IDs: Format: Raw Decoded Include TAF

Data at: 1619 UTC 03 Dec 2021

KLRD 031556Z VRB03KT 10SM CLR 23/19 A3007 RMK AO2 SLP179 T02280194